Time;durP1;ratioP1;P1;durP2;ratioP2;P2;SDS_P1;SDS_P2;PMS_P1;PMS_P2;Temp;Humidity;BMP_temperature;BMP_pressure;BME280_temperature;BME280_humidity;BME280_pressure;Samples;Min_cycle;Max_cycle;Signal;HPM_P1;HPM_P2
2021/04/23 00:01:56;;;;;;;27.25;18.55;;;307.50;2304.00;;;;;;5094335;28;20024;-82
2021/04/23 00:04:22;;;;;;;22.50;14.15;;;307.50;2304.00;;;;;;5093855;28;20055;-82
2021/04/23 00:06:53;;;;;;;18.92;15.02;;;307.50;2304.00;;;;;;5094239;28;20455;-82
2021/04/23 00:09:28;;;;;;;21.98;16.77;;;307.50;2304.00;;;;;;5094630;28;20537;-81
2021/04/23 00:11:57;;;;;;;23.83;17.73;;;307.60;2304.00;;;;;;5094010;28;20494;-82
2021/04/23 00:14:32;;;;;;;24.00;18.15;;;307.60;2304.00;;;;;;5094255;28;20017;-82
2021/04/23 00:16:58;;;;;;;26.17;18.25;;;307.60;2304.00;;;;;;5093865;28;20024;-81
2021/04/23 00:19:26;;;;;;;22.95;17.45;;;307.50;2304.00;;;;;;5094751;28;20034;-82
2021/04/23 00:21:54;;;;;;;22.67;17.70;;;307.50;2304.00;;;;;;5092798;28;20024;-82
2021/04/23 00:24:20;;;;;;;29.17;19.98;;;307.40;2304.00;;;;;;5094330;28;20367;-81
2021/04/23 00:26:46;;;;;;;29.15;21.63;;;307.40;2304.00;;;;;;5093013;28;20024;-81
2021/04/23 00:29:13;;;;;;;26.35;19.33;;;307.30;2304.00;;;;;;5093153;28;20081;-81
2021/04/23 00:31:41;;;;;;;22.77;17.08;;;307.40;2304.00;;;;;;5093792;28;20035;-82
2021/04/23 00:34:07;;;;;;;29.00;20.52;;;307.40;2304.00;;;;;;5093625;28;20337;-82
2021/04/23 00:36:33;;;;;;;23.38;17.77;;;307.30;2304.00;;;;;;5094848;28;20513;-81
2021/04/23 00:38:59;;;;;;;25.70;18.58;;;307.30;2304.00;;;;;;5093931;28;20353;-80
2021/04/23 00:41:30;;;;;;;22.58;18.10;;;307.20;2304.00;;;;;;5093208;28;20157;-81
2021/04/23 00:43:58;;;;;;;42.70;31.27;;;307.20;2304.00;;;;;;5092345;28;20024;-81
2021/04/23 00:46:27;;;;;;;40.53;30.45;;;307.30;2304.00;;;;;;5109974;28;20115;-81
2021/04/23 00:48:53;;;;;;;38.03;30.95;;;307.30;2304.00;;;;;;5093892;28;20031;-81
2021/04/23 00:51:26;;;;;;;43.85;34.85;;;307.50;2304.00;;;;;;5110318;28;20031;-82
2021/04/23 00:53:52;;;;;;;;;;;307.30;2304.00;;;;;;5110615;28;20043;-81
2021/04/23 00:56:22;;;;;;;74.60;65.55;;;307.30;2304.00;;;;;;5110241;28;19911;-82
2021/04/23 00:58:49;;;;;;;55.28;46.15;;;307.30;2304.00;;;;;;5110234;28;20024;-82
2021/04/23 01:01:21;;;;;;;29.05;23.17;;;307.30;2304.00;;;;;;5110117;28;20024;-81
2021/04/23 01:03:47;;;;;;;23.40;18.02;;;307.20;2304.00;;;;;;5109996;28;20044;-82
2021/04/23 01:06:23;;;;;;;23.85;17.45;;;307.20;2304.00;;;;;;5110022;28;20071;-82
2021/04/23 01:08:51;;;;;;;23.67;17.25;;;282.50;2278.40;;;;;;5110416;28;20073;-81
2021/04/23 01:11:19;;;;;;;23.67;17.92;;;282.40;2278.40;;;;;;5115829;28;20024;-82
2021/04/23 01:13:46;;;;;;;23.98;18.15;;;282.30;2278.40;;;;;;5117017;28;20024;-83
2021/04/23 01:16:16;;;;;;;24.48;19.77;;;282.20;2278.40;;;;;;5116655;28;20032;-83
2021/04/23 01:18:42;;;;;;;24.67;18.90;;;282.20;2278.40;;;;;;5099795;28;20126;-82
2021/04/23 01:21:14;;;;;;;23.63;18.50;;;282.20;2278.40;;;;;;5116878;28;20024;-82
2021/04/23 01:23:43;;;;;;;28.20;18.65;;;282.20;2278.40;;;;;;5116917;28;20020;-82
2021/04/23 01:26:11;;;;;;;27.33;19.08;;;282.20;2278.40;;;;;;5117010;28;20035;-82
2021/04/23 01:28:38;;;;;;;28.30;20.40;;;282.20;2278.40;;;;;;5116474;28;20035;-83
2021/04/23 01:31:09;;;;;;;29.88;19.23;;;282.20;2278.40;;;;;;5117347;28;20044;-81
2021/04/23 01:33:37;;;;;;;27.00;19.08;;;282.20;2278.40;;;;;;5117223;28;20093;-82
2021/04/23 01:36:04;;;;;;;25.45;19.38;;;282.20;2278.40;;;;;;5116575;28;20070;-81
2021/04/23 01:38:31;;;;;;;27.85;18.80;;;282.20;2278.40;;;;;;5117138;28;20036;-82
2021/04/23 01:40:57;;;;;;;26.48;18.77;;;282.40;2278.40;;;;;;5115989;28;20028;-83
2021/04/23 01:43:23;;;;;;;31.50;21.55;;;282.50;2278.40;;;;;;5115434;28;20032;-82
2021/04/23 01:45:49;;;;;;;28.10;19.83;;;282.40;2278.40;;;;;;5114655;28;20027;-82
2021/04/23 01:48:18;;;;;;;28.98;20.73;;;282.40;2278.40;;;;;;5099011;28;20024;-81
2021/04/23 01:50:44;;;;;;;30.77;21.33;;;282.40;2278.40;;;;;;5098002;28;20126;-82
2021/04/23 01:53:10;;;;;;;26.40;20.77;;;282.30;2278.40;;;;;;5098832;28;20028;-83
2021/04/23 01:55:38;;;;;;;24.75;18.45;;;282.30;2278.40;;;;;;5098847;28;20024;-82
2021/04/23 01:58:04;;;;;;;21.45;14.80;;;282.40;2278.40;;;;;;5099177;28;20149;-83
2021/04/23 02:00:43;;;;;;;13.48;11.20;;;282.40;2278.40;;;;;;5099637;28;20032;-84
2021/04/23 02:03:11;;;;;;;13.48;9.27;;;282.50;2278.40;;;;;;5099125;28;20048;-82
2021/04/23 02:05:40;;;;;;;10.63;7.95;;;282.50;2278.40;;;;;;5098846;28;20381;-81
2021/04/23 02:08:08;;;;;;;11.63;8.23;;;282.40;2278.40;;;;;;5098664;28;20032;-82
2021/04/23 02:10:39;;;;;;;11.70;9.25;;;282.50;2278.40;;;;;;5100017;28;20024;-82
2021/04/23 02:13:07;;;;;;;12.57;10.02;;;282.40;2278.40;;;;;;5098721;28;20030;-82
2021/04/23 02:15:35;;;;;;;11.93;8.80;;;282.40;2278.40;;;;;;5100390;27;20028;-83
2021/04/23 02:18:01;;;;;;;12.73;9.55;;;282.50;2278.40;;;;;;5098509;28;20032;-81
2021/04/23 02:20:31;;;;;;;12.40;10.68;;;307.60;2304.00;;;;;;5098523;28;20024;-82
2021/04/23 02:23:00;;;;;;;17.42;12.63;;;282.50;2278.40;;;;;;5095356;28;20032;-81
2021/04/23 02:25:27;;;;;;;31.27;21.00;;;282.50;2278.40;;;;;;5094881;28;20028;-82
2021/04/23 02:27:53;;;;;;;21.50;17.42;;;282.50;2278.40;;;;;;5095480;28;20024;-82
2021/04/23 02:30:28;;;;;;;24.92;19.83;;;282.20;2278.40;;;;;;5096035;28;20039;-81
2021/04/23 02:32:55;;;;;;;20.88;17.52;;;282.10;2278.40;;;;;;5095806;28;20024;-82
2021/04/23 02:35:21;;;;;;;23.27;17.23;;;282.10;2278.40;;;;;;5097299;28;20031;-81
2021/04/23 02:37:48;;;;;;;37.20;29.80;;;282.20;2278.40;;;;;;5095859;28;20070;-81
2021/04/23 02:40:17;;;;;;;45.58;36.42;;;282.10;2278.40;;;;;;5095481;28;20020;-81
2021/04/23 02:42:44;;;;;;;28.50;24.20;;;282.10;2278.40;;;;;;5096350;28;20028;-82
2021/04/23 02:45:13;;;;;;;20.67;16.52;;;282.10;2278.40;;;;;;5095866;28;20035;-82
2021/04/23 02:47:39;;;;;;;18.48;15.27;;;282.20;2278.40;;;;;;5095791;28;20032;-82
2021/04/23 02:50:07;;;;;;;16.35;13.82;;;282.10;2278.40;;;;;;5095813;28;20028;-83
2021/04/23 02:52:33;;;;;;;18.60;15.73;;;282.20;2278.40;;;;;;5096034;28;20024;-83
2021/04/23 02:54:59;;;;;;;22.85;16.90;;;282.20;2278.40;;;;;;5095690;28;20031;-84
2021/04/23 02:57:25;;;;;;;19.95;16.20;;;282.10;2278.40;;;;;;5095593;28;20028;-83
2021/04/23 02:59:51;;;;;;;22.48;18.73;;;282.20;2278.40;;;;;;5095872;28;20042;-83
2021/04/23 03:02:17;;;;;;;26.77;20.50;;;282.00;2278.40;;;;;;5095507;28;20028;-84
2021/04/23 03:04:43;;;;;;;21.85;18.02;;;281.90;2278.40;;;;;;5095488;28;20135;-84
2021/04/23 03:07:09;;;;;;;31.27;19.23;;;282.00;2278.40;;;;;;5095456;28;20028;-83
2021/04/23 03:09:35;;;;;;;19.55;16.80;;;282.10;2278.40;;;;;;5095344;28;20062;-83
2021/04/23 03:12:02;;;;;;;20.25;17.27;;;282.00;2278.40;;;;;;5094988;28;20037;-82
2021/04/23 03:14:28;;;;;;;20.60;17.02;;;282.20;2278.40;;;;;;5095236;28;20032;-82
2021/04/23 03:16:54;;;;;;;24.65;22.15;;;282.20;2278.40;;;;;;5094757;28;20073;-82
2021/04/23 03:19:22;;;;;;;26.42;22.83;;;282.40;2278.40;;;;;;5095043;28;20459;-82
2021/04/23 03:21:50;;;;;;;22.38;19.85;;;282.30;2278.40;;;;;;5093923;28;20020;-83
2021/04/23 03:24:17;;;;;;;18.23;16.00;;;282.30;2278.40;;;;;;5094818;28;20054;-82
2021/04/23 03:26:45;;;;;;;17.58;14.13;;;282.20;2278.40;;;;;;5094656;28;20027;-83
2021/04/23 03:29:13;;;;;;;15.80;12.35;;;282.30;2278.40;;;;;;5094411;28;20073;-83
2021/04/23 03:31:39;;;;;;;15.35;11.68;;;282.20;2278.40;;;;;;5095003;28;20028;-84
2021/04/23 03:34:05;;;;;;;14.27;11.65;;;282.20;2278.40;;;;;;5093505;28;20036;-82
2021/04/23 03:36:32;;;;;;;13.43;10.57;;;282.10;2278.40;;;;;;5094605;28;20024;-83
2021/04/23 03:38:57;;;;;;;14.40;11.80;;;282.10;2278.40;;;;;;5094629;28;20528;-82
2021/04/23 03:41:29;;;;;;;17.48;12.82;;;282.10;2278.40;;;;;;5095121;28;20027;-83
2021/04/23 03:43:56;;;;;;;23.73;17.35;;;282.10;2278.40;;;;;;5094090;28;20024;-83
2021/04/23 03:46:23;;;;;;;20.60;17.02;;;282.10;2278.40;;;;;;5094870;28;20028;-83
2021/04/23 03:48:49;;;;;;;14.93;11.48;;;282.20;2278.40;;;;;;5093839;28;20085;-83
2021/04/23 03:51:16;;;;;;;16.13;12.50;;;307.30;2304.00;;;;;;5094375;28;20063;-84
2021/04/23 03:53:43;;;;;;;16.20;13.77;;;282.00;2278.40;;;;;;5094678;28;20032;-83
2021/04/23 03:56:09;;;;;;;21.33;17.88;;;282.10;2278.40;;;;;;5094495;28;20024;-84
2021/04/23 03:58:36;;;;;;;27.40;20.75;;;282.00;2278.40;;;;;;5094112;28;20020;-83
2021/04/23 04:01:09;;;;;;;29.88;18.42;;;282.10;2278.40;;;;;;5094337;28;20020;-85
2021/04/23 04:03:36;;;;;;;;;;;282.10;2278.40;;;;;;5094342;28;20040;-82
2021/04/23 04:06:03;;;;;;;32.03;24.52;;;282.20;2278.40;;;;;;5094234;28;19911;-82
2021/04/23 04:08:30;;;;;;;29.83;23.15;;;282.20;2278.40;;;;;;5094015;28;20028;-82
2021/04/23 04:10:56;;;;;;;29.48;22.83;;;282.10;2278.40;;;;;;5093943;28;20054;-82
2021/04/23 04:13:22;;;;;;;31.23;22.42;;;282.00;2278.40;;;;;;5094437;28;20028;-81
2021/04/23 04:15:48;;;;;;;28.15;22.00;;;282.10;2278.40;;;;;;5093930;28;20031;-82
2021/04/23 04:18:16;;;;;;;36.60;26.83;;;282.10;2278.40;;;;;;5094905;28;20032;-81
2021/04/23 04:20:47;;;;;;;40.17;31.25;;;282.20;2278.40;;;;;;5095013;28;20023;-81
2021/04/23 04:23:15;;;;;;;36.83;28.42;;;282.10;2278.40;;;;;;5094657;28;20463;-82
2021/04/23 04:25:43;;;;;;;38.53;30.80;;;282.10;2278.40;;;;;;5094664;28;20024;-83
2021/04/23 04:28:10;;;;;;;37.10;27.88;;;282.10;2278.40;;;;;;5093560;28;20024;-82
2021/04/23 04:30:37;;;;;;;34.22;26.17;;;282.00;2278.40;;;;;;5092437;28;20077;-79
2021/04/23 04:33:05;;;;;;;36.95;29.50;;;282.00;2278.40;;;;;;5093474;28;20031;-81
2021/04/23 04:35:32;;;;;;;32.30;25.55;;;282.00;2278.40;;;;;;5093750;28;20024;-83
2021/04/23 04:37:59;;;;;;;30.00;22.05;;;282.10;2278.40;;;;;;5093325;28;20032;-82
2021/04/23 04:40:27;;;;;;;26.27;19.98;;;282.20;2278.40;;;;;;5094710;28;20081;-82
2021/04/23 04:42:53;;;;;;;29.02;21.48;;;282.20;2278.40;;;;;;5093788;28;20114;-81
2021/04/23 04:45:22;;;;;;;19.90;16.52;;;282.20;2278.40;;;;;;5092897;28;20033;-82
2021/04/23 04:47:48;;;;;;;23.48;17.80;;;282.30;2278.40;;;;;;5093197;28;20035;-83
2021/04/23 04:50:18;;;;;;;20.88;16.83;;;282.10;2278.40;;;;;;5093518;28;20092;-83
2021/04/23 04:52:43;;;;;;;23.10;15.88;;;282.10;2278.40;;;;;;5093442;28;20031;-83
2021/04/23 04:55:12;;;;;;;23.92;17.98;;;282.20;2278.40;;;;;;5093428;28;20024;-83
2021/04/23 04:57:39;;;;;;;21.45;16.52;;;282.20;2278.40;;;;;;5093440;28;20039;-83
2021/04/23 05:00:07;;;;;;;22.90;17.40;;;282.20;2278.40;;;;;;5093117;28;20077;-82
2021/04/23 05:02:33;;;;;;;17.70;15.73;;;282.30;2278.40;;;;;;5093137;28;20379;-82
2021/04/23 05:05:00;;;;;;;20.58;15.75;;;282.30;2278.40;;;;;;5093123;28;20027;-83
2021/04/23 05:07:26;;;;;;;30.05;19.92;;;282.30;2278.40;;;;;;5093096;28;20056;-81
2021/04/23 05:09:51;;;;;;;29.02;21.23;;;282.30;2278.40;;;;;;5093176;28;20066;-83
2021/04/23 05:12:17;;;;;;;30.63;22.77;;;282.20;2278.40;;;;;;5093083;28;20028;-82
2021/04/23 05:14:43;;;;;;;30.10;21.70;;;282.30;2278.40;;;;;;5092947;28;20038;-82
2021/04/23 05:17:09;;;;;;;22.48;18.65;;;282.20;2278.40;;;;;;5093228;28;20030;-82
2021/04/23 05:19:35;;;;;;;24.80;19.15;;;282.30;2278.40;;;;;;5093152;28;20123;-83
2021/04/23 05:22:00;;;;;;;27.33;20.25;;;282.20;2278.40;;;;;;5093119;28;20024;-82
2021/04/23 05:24:26;;;;;;;33.85;27.30;;;282.10;2278.40;;;;;;5092940;28;20081;-82
2021/04/23 05:26:52;;;;;;;24.88;20.60;;;282.20;2278.40;;;;;;5092999;28;20036;-84
2021/04/23 05:29:18;;;;;;;23.77;18.90;;;282.30;2278.40;;;;;;5092809;28;20035;-82
2021/04/23 05:31:44;;;;;;;21.35;18.45;;;282.40;2278.40;;;;;;5092989;28;20035;-82
2021/04/23 05:34:09;;;;;;;17.60;14.05;;;282.40;2278.40;;;;;;5092849;28;20027;-81
2021/04/23 05:36:35;;;;;;;22.33;17.13;;;282.40;2278.40;;;;;;5092833;28;20024;-80
2021/04/23 05:39:01;;;;;;;22.25;17.70;;;282.40;2278.40;;;;;;5093538;28;20105;-82
2021/04/23 05:41:27;;;;;;;23.83;18.42;;;282.40;2278.40;;;;;;5092163;28;20470;-82
2021/04/23 05:43:53;;;;;;;19.45;15.15;;;282.50;2278.40;;;;;;5092840;28;20020;-80
2021/04/23 05:46:19;;;;;;;12.15;10.00;;;282.50;2278.40;;;;;;5092780;28;20119;-83
2021/04/23 05:48:46;;;;;;;14.00;10.25;;;282.50;2278.40;;;;;;5092687;28;20057;-83
2021/04/23 05:51:12;;;;;;;18.15;14.40;;;282.50;2278.40;;;;;;5092364;28;20040;-83
2021/04/23 05:53:38;;;;;;;19.83;15.70;;;282.30;2278.40;;;;;;5092444;28;20024;-84
2021/04/23 05:56:04;;;;;;;25.38;21.17;;;282.30;2278.40;;;;;;5092504;28;20157;-83
2021/04/23 05:58:31;;;;;;;24.77;19.50;;;282.30;2278.40;;;;;;5096086;28;20081;-83
2021/04/23 06:00:56;;;;;;;21.83;17.65;;;282.10;2278.40;;;;;;5096429;28;20047;-82
2021/04/23 06:03:22;;;;;;;23.13;19.75;;;282.10;2278.40;;;;;;5096311;28;20475;-82
2021/04/23 06:05:48;;;;;;;25.08;20.35;;;282.10;2278.40;;;;;;5095754;28;20023;-82
2021/04/23 06:08:15;;;;;;;28.17;18.63;;;282.10;2278.40;;;;;;5096839;28;20030;-82
2021/04/23 06:10:42;;;;;;;27.73;23.20;;;282.10;2278.40;;;;;;5095733;28;20032;-83
2021/04/23 06:13:08;;;;;;;24.58;20.30;;;282.10;2278.40;;;;;;5096022;28;20024;-82
2021/04/23 06:15:34;;;;;;;35.22;28.05;;;282.00;2278.40;;;;;;5095977;28;20047;-82
2021/04/23 06:18:00;;;;;;;27.98;21.52;;;282.00;2278.40;;;;;;5096853;28;20032;-83
2021/04/23 06:20:29;;;;;;;63.63;36.65;;;282.10;2278.40;;;;;;5096068;28;20468;-83
2021/04/23 06:22:57;;;;;;;18.58;12.43;;;282.20;2278.40;;;;;;5096009;28;20028;-83
2021/04/23 06:25:25;;;;;;;16.38;11.65;;;282.30;2278.40;;;;;;5096124;28;20024;-82
2021/04/23 06:27:52;;;;;;;13.70;8.27;;;282.40;2278.40;;;;;;5095876;28;20035;-83
2021/04/23 06:30:24;;;;;;;12.45;9.32;;;282.40;2278.40;;;;;;5095832;28;20032;-82
2021/04/23 06:32:51;;;;;;;11.57;9.35;;;282.40;2278.40;;;;;;5096117;28;20077;-82
2021/04/23 06:35:20;;;;;;;11.00;6.82;;;282.30;2278.40;;;;;;5095952;28;20479;-82
2021/04/23 06:37:47;;;;;;;16.58;12.73;;;282.30;2278.40;;;;;;5096809;28;20035;-83
2021/04/23 06:40:14;;;;;;;15.55;12.18;;;282.40;2278.40;;;;;;5095704;28;20024;-81
2021/04/23 06:42:41;;;;;;;9.80;7.38;;;282.30;2278.40;;;;;;5095726;28;20028;-80
2021/04/23 06:45:10;;;;;;;8.10;6.75;;;282.30;2278.40;;;;;;5094520;28;20481;-82
2021/04/23 06:47:36;;;;;;;12.23;10.07;;;282.30;2278.40;;;;;;5112500;28;20021;-82
2021/04/23 06:50:07;;;;;;;10.70;8.05;;;282.30;2278.40;;;;;;5111659;28;20099;-82
2021/04/23 06:52:33;;;;;;;9.43;7.85;;;282.30;2278.40;;;;;;5112817;28;20352;-84
2021/04/23 06:54:59;;;;;;;10.02;8.02;;;282.30;2278.40;;;;;;5113120;28;20020;-82
2021/04/23 06:57:25;;;;;;;8.85;7.65;;;282.30;2278.40;;;;;;5112320;28;20020;-83
2021/04/23 06:59:51;;;;;;;23.70;17.00;;;282.20;2278.40;;;;;;5096267;28;20024;-83
2021/04/23 07:02:17;;;;;;;15.98;12.60;;;282.10;2278.40;;;;;;5112187;28;20020;-82
2021/04/23 07:04:43;;;;;;;13.25;11.10;;;282.20;2278.40;;;;;;5111876;28;20052;-83
2021/04/23 07:07:09;;;;;;;15.70;13.13;;;282.10;2278.40;;;;;;5112229;28;20380;-81
2021/04/23 07:09:34;;;;;;;22.70;18.25;;;282.20;2278.40;;;;;;5111762;28;20127;-83
2021/04/23 07:12:02;;;;;;;40.53;29.95;;;282.20;2278.40;;;;;;5112085;28;20032;-83
2021/04/23 07:14:29;;;;;;;29.85;24.20;;;282.20;2278.40;;;;;;5111079;28;20026;-82
2021/04/23 07:16:55;;;;;;;20.33;16.88;;;282.30;2278.40;;;;;;5095304;28;20529;-81
2021/04/23 07:19:21;;;;;;;29.45;23.05;;;282.30;2278.40;;;;;;5094398;28;20032;-83
2021/04/23 07:21:47;;;;;;;29.92;25.65;;;282.30;2278.40;;;;;;5095472;28;20081;-82
2021/04/23 07:24:13;;;;;;;33.80;25.67;;;282.40;2278.40;;;;;;5094951;28;20019;-82
2021/04/23 07:26:39;;;;;;;33.30;26.88;;;282.40;2278.40;;;;;;5094698;28;20028;-83
2021/04/23 07:29:05;;;;;;;32.17;26.65;;;282.50;2278.40;;;;;;5094889;28;20039;-83
2021/04/23 07:31:31;;;;;;;32.65;26.75;;;282.50;2278.40;;;;;;5094842;28;20368;-83
2021/04/23 07:33:57;;;;;;;41.00;32.63;;;307.30;2304.00;;;;;;5094616;28;20035;-83
2021/04/23 07:36:24;;;;;;;46.25;37.25;;;307.40;2304.00;;;;;;5094745;28;20028;-83
2021/04/23 07:38:50;;;;;;;95.38;71.00;;;307.40;2304.00;;;;;;5095189;28;20509;-82
2021/04/23 07:41:16;;;;;;;52.70;43.97;;;307.60;2304.00;;;;;;5094449;28;20020;-82
2021/04/23 07:43:41;;;;;;;49.53;41.63;;;307.70;2304.00;;;;;;5094702;28;20032;-82
2021/04/23 07:46:07;;;;;;;53.63;44.50;;;307.70;2304.00;;;;;;5094243;28;20058;-82
2021/04/23 07:48:34;;;;;;;41.75;34.83;;;307.70;2304.00;;;;;;5094356;28;20059;-83
2021/04/23 07:51:00;;;;;;;42.60;35.92;;;307.80;2304.00;;;;;;5094418;28;20059;-82
2021/04/23 07:53:26;;;;;;;43.70;33.95;;;307.90;2304.00;;;;;;5094504;28;20028;-82
2021/04/23 07:55:52;;;;;;;46.67;39.00;;;308.00;2304.00;;;;;;5094356;28;20375;-82
2021/04/23 07:58:18;;;;;;;40.42;34.28;;;308.10;2304.00;;;;;;5095070;28;20032;-83
2021/04/23 08:00:45;;;;;;;54.35;43.92;;;308.10;2304.00;;;;;;5094286;28;20024;-82
2021/04/23 08:03:11;;;;;;;79.35;57.22;;;308.10;2304.00;;;;;;5093992;28;20048;-83
2021/04/23 08:05:36;;;;;;;80.38;53.47;;;332.90;2329.60;;;;;;5094441;28;20031;-82
2021/04/23 08:08:03;;;;;;;117.40;73.45;;;332.90;2329.60;;;;;;5093976;28;20531;-82
2021/04/23 08:10:30;;;;;;;48.15;36.85;;;332.90;2329.60;;;;;;5094407;28;20028;-83
2021/04/23 08:12:56;;;;;;;50.88;40.85;;;333.00;2329.60;;;;;;5094173;28;20044;-79
2021/04/23 08:15:24;;;;;;;45.70;38.00;;;333.00;2329.60;;;;;;5093467;28;20115;-81
2021/04/23 08:17:50;;;;;;;36.63;30.65;;;333.10;2329.60;;;;;;5095334;28;20055;-80
2021/04/23 08:20:16;;;;;;;37.78;30.10;;;333.00;2329.60;;;;;;5093153;28;20356;-75
2021/04/23 08:22:43;;;;;;;42.83;34.67;;;333.00;2329.60;;;;;;5094271;28;20032;-74
2021/04/23 08:25:10;;;;;;;43.72;30.45;;;333.00;2329.60;;;;;;5091895;28;20035;-75
2021/04/23 08:27:36;;;;;;;34.42;28.58;;;333.10;2329.60;;;;;;5094427;28;20024;-74
2021/04/23 08:30:06;;;;;;;37.83;32.15;;;333.10;2329.60;;;;;;5092281;28;20040;-79
2021/04/23 08:32:32;;;;;;;33.70;27.27;;;333.10;2329.60;;;;;;5092151;28;20039;-76
2021/04/23 08:34:58;;;;;;;34.28;27.67;;;333.10;2329.60;;;;;;5091510;28;20032;-75
2021/04/23 08:37:24;;;;;;;36.00;28.33;;;333.10;2329.60;;;;;;5091539;28;20024;-75
2021/04/23 08:39:50;;;;;;;36.42;28.08;;;333.20;2329.60;;;;;;5092212;28;20107;-75
2021/04/23 08:42:16;;;;;;;38.80;29.52;;;333.20;2329.60;;;;;;5090796;28;20112;-74
2021/04/23 08:44:42;;;;;;;36.50;27.15;;;333.20;2329.60;;;;;;5092418;28;20032;-74
2021/04/23 08:47:09;;;;;;;33.17;26.02;;;333.30;2329.60;;;;;;5107600;28;20031;-74
2021/04/23 08:49:36;;;;;;;33.90;26.58;;;333.30;2329.60;;;;;;5091954;28;20053;-75
2021/04/23 08:52:03;;;;;;;34.45;27.25;;;333.30;2329.60;;;;;;5109316;28;20032;-75
2021/04/23 08:54:29;;;;;;;36.53;30.27;;;333.50;2329.60;;;;;;5091769;28;20332;-76
2021/04/23 08:56:55;;;;;;;30.92;22.92;;;333.60;2329.60;;;;;;5092817;28;20106;-75
2021/04/23 08:59:21;;;;;;;25.95;22.45;;;333.70;2329.60;;;;;;5093367;28;20375;-76
2021/04/23 09:01:47;;;;;;;33.05;25.08;;;358.50;2329.60;;;;;;5092227;28;20024;-75
2021/04/23 09:04:13;;;;;;;28.23;21.80;;;358.50;2329.60;;;;;;5091318;28;20135;-75
2021/04/23 09:06:39;;;;;;;22.42;18.55;;;358.60;2329.60;;;;;;5092323;28;20111;-75
2021/04/23 09:09:13;;;;;;;29.27;21.85;;;358.60;2329.60;;;;;;5092026;28;20088;-74
2021/04/23 09:11:43;;;;;;;23.33;19.98;;;358.80;2329.60;;;;;;5091657;28;20114;-75
2021/04/23 09:14:17;;;;;;;27.88;21.95;;;358.80;2329.60;;;;;;5092440;28;20112;-75
2021/04/23 09:16:59;;;;;;;23.58;18.25;;;358.80;2329.60;;;;;;5091708;28;20021;-75
2021/04/23 09:19:33;;;;;;;33.10;23.40;;;358.80;2329.60;;;;;;5092314;28;20080;-75
2021/04/23 09:22:01;;;;;;;30.80;21.77;;;358.90;2329.60;;;;;;5091162;28;20419;-75
2021/04/23 09:24:32;;;;;;;33.15;24.00;;;358.80;2329.60;;;;;;5092469;28;20024;-80
2021/04/23 09:27:00;;;;;;;32.63;23.40;;;358.80;2329.60;;;;;;5093566;28;20028;-79
2021/04/23 09:29:30;;;;;;;41.60;25.63;;;358.80;2329.60;;;;;;5092650;28;20050;-81
2021/04/23 09:32:10;;;;;;;32.30;23.20;;;358.80;2329.60;;;;;;5096528;28;20034;-79
2021/04/23 09:34:46;;;;;;;35.50;24.45;;;358.80;2329.60;;;;;;5097404;28;20028;-81
2021/04/23 09:37:12;;;;;;;32.03;18.58;;;358.90;2329.60;;;;;;5098599;28;20124;-81
2021/04/23 09:39:37;;;;;;;27.40;20.80;;;358.80;2252.80;;;;;;5096346;28;20475;-80
2021/04/23 09:42:08;;;;;;;21.85;15.85;;;359.00;2304.00;;;;;;5096996;28;20027;-81
2021/04/23 09:44:42;;;;;;;17.80;13.73;;;359.00;2176.00;;;;;;5096615;28;20035;-81
2021/04/23 09:47:15;;;;;;;19.70;14.70;;;358.90;2124.80;;;;;;5095491;28;20028;-80
2021/04/23 09:49:57;;;;;;;;;;;358.90;2048.00;;;;;;5097496;28;20123;-83
2021/04/23 09:52:25;;;;;;;26.13;18.80;;;358.90;2048.00;;;;;;5097048;28;19908;-84
2021/04/23 09:54:54;;;;;;;24.83;17.67;;;358.80;2124.80;;;;;;5097434;28;20115;-83
2021/04/23 09:57:26;;;;;;;20.92;15.65;;;358.90;2099.20;;;;;;5097247;28;20078;-85
2021/04/23 09:59:57;;;;;;;21.23;15.35;;;358.90;2150.40;;;;;;5097296;28;20024;-81
2021/04/23 10:02:26;;;;;;;23.35;16.10;;;359.00;2048.00;;;;;;5096604;28;20115;-80
2021/04/23 10:04:54;;;;;;;22.50;15.77;;;359.00;2022.40;;;;;;5096273;28;20032;-84
2021/04/23 10:07:25;;;;;;;24.70;17.77;;;359.00;2022.40;;;;;;5096391;28;20460;-79
2021/04/23 10:09:55;;;;;;;27.52;14.98;;;359.00;1945.60;;;;;;5097169;28;20038;-82
2021/04/23 10:12:43;;;;;;;26.38;19.85;;;359.00;1971.20;;;;;;5096002;28;20047;-80
2021/04/23 10:15:21;;;;;;;23.42;17.35;;;359.00;1894.40;;;;;;5094799;28;20048;-80
2021/04/23 10:17:52;;;;;;;24.60;15.75;;;359.10;1894.40;;;;;;5096321;28;20108;-81
2021/04/23 10:20:24;;;;;;;26.77;16.63;;;359.10;1920.00;;;;;;5095973;28;20028;-86
2021/04/23 10:22:51;;;;;;;21.80;15.70;;;359.20;1868.80;;;;;;5097133;28;20111;-85
2021/04/23 10:25:18;;;;;;;31.83;23.15;;;384.00;1843.20;;;;;;5096575;28;20101;-86
2021/04/23 10:27:46;;;;;;;22.27;15.13;;;384.20;1868.80;;;;;;5095983;28;20021;-80
2021/04/23 10:30:18;;;;;;;24.83;14.40;;;384.00;1792.00;;;;;;5095817;28;20020;-81
2021/04/23 10:32:48;;;;;;;18.87;13.67;;;384.10;1792.00;;;;;;5096290;28;20028;-81
2021/04/23 10:35:14;;;;;;;19.48;12.48;;;384.20;1792.00;;;;;;5095560;28;20256;-82
2021/04/23 10:37:41;;;;;;;15.18;10.02;;;384.10;1740.80;;;;;;5096173;28;20063;-83
2021/04/23 10:40:09;;;;;;;16.45;10.55;;;384.10;1740.80;;;;;;5096059;28;20123;-84
2021/04/23 10:42:51;;;;;;;16.50;10.85;;;384.20;1740.80;;;;;;5095095;28;20024;-82
2021/04/23 10:45:41;;;;;;;31.77;20.45;;;384.40;1792.00;;;;;;5095461;28;20028;-83
2021/04/23 10:48:13;;;;;;;18.85;14.15;;;384.60;1792.00;;;;;;5108733;28;20032;-79
2021/04/23 10:50:40;;;;;;;18.05;11.57;;;384.60;1715.20;;;;;;5109094;28;20012;-81
2021/04/23 10:53:11;;;;;;;21.42;14.50;;;384.60;1689.60;;;;;;5103469;28;20028;-80
2021/04/23 10:55:42;;;;;;;27.52;18.27;;;384.70;1715.20;;;;;;5088735;28;20020;-80
2021/04/23 10:58:10;;;;;;;21.60;14.52;;;384.70;1740.80;;;;;;5094591;28;20116;-79
2021/04/23 11:00:49;;;;;;;14.45;8.77;;;384.70;1689.60;;;;;;5094725;28;20024;-79
2021/04/23 11:03:21;;;;;;;17.48;11.18;;;384.90;1715.20;;;;;;5090354;28;20054;-81
2021/04/23 11:05:54;;;;;;;21.13;14.07;;;384.80;1638.40;;;;;;5094480;28;20456;-80
2021/04/23 11:08:21;;;;;;;20.48;12.18;;;384.90;1689.60;;;;;;5094904;28;20039;-79
2021/04/23 11:13:31;;;;;;;22.60;13.75;;;384.70;1664.00;;;;;;5096221;28;20463;-80
2021/04/23 11:16:23;;;;;;;26.10;17.92;;;384.70;1715.20;;;;;;5094646;28;20028;-80
2021/04/23 11:18:57;;;;;;;28.85;15.68;;;384.80;1638.40;;;;;;5094749;28;20028;-81
2021/04/23 11:21:34;;;;;;;19.60;12.13;;;384.90;1612.80;;;;;;5094860;28;20024;-81
2021/04/23 11:24:09;;;;;;;17.45;11.90;;;410.00;1612.80;;;;;;5094777;28;20035;-81
2021/04/23 11:26:53;;;;;;;18.17;11.60;;;410.50;1561.60;;;;;;5094875;28;20028;-82
2021/04/23 11:29:21;;;;;;;18.65;10.75;;;435.50;1612.80;;;;;;5094643;28;20122;-82
2021/04/23 11:32:16;;;;;;;25.67;15.65;;;435.50;1792.00;;;;;;5094445;28;20054;-81
2021/04/23 11:34:46;;;;;;;11.15;7.90;;;435.60;1638.40;;;;;;5095805;28;20034;-79
2021/04/23 11:37:16;;;;;;;16.35;10.88;;;435.60;1612.80;;;;;;5093943;28;20138;-76
2021/04/23 11:39:55;;;;;;;13.68;9.23;;;435.50;1587.20;;;;;;5095389;28;20058;-74
2021/04/23 11:42:24;;;;;;;13.20;8.63;;;435.50;1484.80;;;;;;5095442;28;20028;-75
2021/04/23 11:45:20;;;;;;;11.32;8.20;;;435.60;1484.80;;;;;;5109180;28;20573;-75
2021/04/23 11:47:50;;;;;;;10.00;6.53;;;435.60;1561.60;;;;;;5093372;28;20020;-75
2021/04/23 11:50:25;;;;;;;11.73;7.40;;;435.80;1484.80;;;;;;5092969;28;20032;-74
2021/04/23 11:52:52;;;;;;;16.95;8.57;;;435.80;1536.00;;;;;;5093600;28;20034;-74
2021/04/23 11:55:25;;;;;;;15.50;9.25;;;436.00;1638.40;;;;;;5094159;28;20029;-75
2021/04/23 11:58:03;;;;;;;14.43;9.07;;;436.10;1587.20;;;;;;5093895;28;20053;-75
2021/04/23 12:00:29;;;;;;;16.88;8.30;;;435.90;1510.40;;;;;;5095374;28;20109;-77
2021/04/23 12:03:02;;;;;;;20.80;11.80;;;435.50;1459.20;;;;;;5093381;28;20048;-77
2021/04/23 12:05:29;;;;;;;;;;;435.60;1587.20;;;;;;5093688;28;20020;-75
2021/04/23 12:08:01;;;;;;;13.68;8.77;;;435.80;1536.00;;;;;;5091807;28;19916;-77
2021/04/23 12:10:28;;;;;;;18.35;10.68;;;435.60;1510.40;;;;;;5093580;28;20109;-77